Time;durP1;ratioP1;P1;durP2;ratioP2;P2;SDS_P1;SDS_P2;PMS_P1;PMS_P2;Temp;Humidity;BMP_temperature;BMP_pressure;BME280_temperature;BME280_humidity;BME280_pressure;Samples;Min_cycle;Max_cycle;Signal;HPM_P1;HPM_P2
2022/08/22 00:01:28;;;;;;;;;;;27.70;47.10;;;;;;5091286;28;19920;-62
2022/08/22 00:04:05;;;;;;;;;;;27.70;47.60;;;;;;5082594;28;20284;-62
2022/08/22 00:06:44;;;;;;;;;;;27.70;47.40;;;;;;5092294;28;19920;-62
2022/08/22 00:09:19;;;;;;;;;;;27.70;47.40;;;;;;5067149;28;19962;-62
2022/08/22 00:12:06;;;;;;;;;;;27.70;47.40;;;;;;5074459;28;20276;-62
2022/08/22 00:14:41;;;;;;;;;;;27.70;47.40;;;;;;5078426;28;20337;-62
2022/08/22 00:17:22;;;;;;;;;;;27.70;47.20;;;;;;5100674;28;19956;-62
2022/08/22 00:19:50;;;;;;;;;;;27.70;47.50;;;;;;5092235;28;19999;-62
2022/08/22 00:22:24;;;;;;;;;;;27.70;47.50;;;;;;5074218;28;19911;-62
2022/08/22 00:25:02;;;;;;;;;;;27.70;47.20;;;;;;5090315;28;19916;-62
2022/08/22 00:27:31;;;;;;;;;;;27.70;47.50;;;;;;5108111;28;19938;-62
2022/08/22 00:29:59;;;;;;;;;;;27.60;47.50;;;;;;5089976;28;19919;-62
2022/08/22 00:32:26;;;;;;;;;;;27.50;47.70;;;;;;5107269;28;20023;-62
2022/08/22 00:35:00;;;;;;;;;;;27.50;47.50;;;;;;5085372;28;19974;-62
2022/08/22 00:37:34;;;;;;;;;;;27.60;47.60;;;;;;5106691;28;19916;-62
2022/08/22 00:40:03;;;;;;;;;;;27.60;47.70;;;;;;5092600;28;19912;-62
2022/08/22 00:42:35;;;;;;;;;;;27.60;47.50;;;;;;5108525;27;19916;-62
2022/08/22 00:45:18;;;;;;;;;;;27.60;47.40;;;;;;5100046;28;19916;-62
2022/08/22 00:47:56;;;;;;;;;;;27.60;47.60;;;;;;5091706;28;19951;-62
2022/08/22 00:50:22;;;;;;;;;;;27.70;47.40;;;;;;5089342;28;20401;-62
2022/08/22 00:53:10;;;;;;;;;;;27.60;47.30;;;;;;5090873;28;20003;-62
2022/08/22 00:55:44;;;;;;;;;;;27.70;47.50;;;;;;5106062;28;20337;-62
2022/08/22 00:58:31;;;;;;;;;;;27.60;47.60;;;;;;5088509;28;19923;-62
2022/08/22 01:01:06;;;;;;;;;;;27.60;47.70;;;;;;5106492;28;19919;-62
2022/08/22 01:03:47;;;;;;;;;;;27.60;47.50;;;;;;5106582;28;19937;-62
2022/08/22 01:06:28;;;;;;;;;;;27.60;47.70;;;;;;5091386;28;19920;-62
2022/08/22 01:08:59;;;;;;;;;;;27.60;47.70;;;;;;5091673;28;20399;-62
2022/08/22 01:11:24;;;;;;;;;;;27.60;47.50;;;;;;5105583;28;19920;-62
2022/08/22 01:13:58;;;;;;;;;;;27.60;47.50;;;;;;5098145;28;19968;-62
2022/08/22 01:16:33;;;;;;;;;;;27.70;47.30;;;;;;5112803;28;19977;-62
2022/08/22 01:19:07;;;;;;;;;;;27.60;47.40;;;;;;5111462;28;20374;-62
2022/08/22 01:21:44;;;;;;;;;;;27.60;47.30;;;;;;5093340;28;19916;-62
2022/08/22 01:24:22;;;;;;;;;;;27.70;47.60;;;;;;5090820;28;19915;-62
2022/08/22 01:27:06;;;;;;;;;;;27.60;47.60;;;;;;5112261;28;19919;-62
2022/08/22 01:29:38;;;;;;;;;;;27.60;47.80;;;;;;5091606;28;19912;-62
2022/08/22 01:32:14;;;;;;;;;;;27.60;47.60;;;;;;5092417;28;19912;-62
2022/08/22 01:34:42;;;;;;;;;;;27.60;47.90;;;;;;5093808;28;20291;-62
2022/08/22 01:37:18;;;;;;;;;;;27.50;48.00;;;;;;5091399;28;19911;-62
2022/08/22 01:39:59;;;;;;;;;;;27.60;48.00;;;;;;5106092;28;20264;-62
2022/08/22 01:42:34;;;;;;;;;;;27.50;47.70;;;;;;5109929;28;19915;-62
2022/08/22 01:44:59;;;;;;;;;;;27.60;47.70;;;;;;5110905;28;20379;-62
2022/08/22 01:47:31;;;;;;;;;;;27.60;47.70;;;;;;5110068;28;19922;-62
2022/08/22 01:49:57;;;;;;;;;;;27.60;47.90;;;;;;5093439;28;19919;-62
2022/08/22 01:52:36;;;;;;;;;;;27.60;48.00;;;;;;5092890;28;20291;-62
2022/08/22 01:55:21;;;;;;;;;;;27.50;48.10;;;;;;5089876;28;20355;-62
2022/08/22 01:57:57;;;;;;;;;;;27.60;48.00;;;;;;5109990;28;20195;-62
2022/08/22 02:00:23;;;;;;;;;;;27.50;48.20;;;;;;5109263;28;19926;-62
2022/08/22 02:02:53;;;;;;;;;;;27.50;48.00;;;;;;5093135;28;20267;-62
2022/08/22 02:05:27;;;;;;;;;;;27.50;48.10;;;;;;5092190;28;20281;-62
2022/08/22 02:08:04;;;;;;;;;;;27.50;48.10;;;;;;5089185;28;20382;-62
2022/08/22 02:10:41;;;;;;;;;;;27.50;48.10;;;;;;5091515;28;19944;-62
2022/08/22 02:13:12;;;;;;;;;;;27.40;48.30;;;;;;5091105;28;19916;-62
2022/08/22 02:15:38;;;;;;;;;;;27.40;48.10;;;;;;5109883;28;19949;-62
2022/08/22 02:18:09;;;;;;;;;;;27.40;48.30;;;;;;5104766;28;19948;-62
2022/08/22 02:20:58;;;;;;;;;;;27.50;48.40;;;;;;5109996;28;20311;-62
2022/08/22 02:23:26;;;;;;;;;;;27.40;48.40;;;;;;5110867;28;19920;-62
2022/08/22 02:25:56;;;;;;;;;;;27.40;48.40;;;;;;5075296;28;19923;-62
2022/08/22 02:28:22;;;;;;;;;;;27.50;48.30;;;;;;5093783;28;19954;-62
2022/08/22 02:30:49;;;;;;;;;;;27.40;48.50;;;;;;5105536;28;20406;-62
2022/08/22 02:33:21;;;;;;;;;;;27.40;48.20;;;;;;5087360;28;19912;-62
2022/08/22 02:35:48;;;;;;;;;;;27.40;48.50;;;;;;5090889;28;19912;-62
2022/08/22 02:38:23;;;;;;;;;;;27.40;48.30;;;;;;5086734;28;19920;-62
2022/08/22 02:40:51;;;;;;;;;;;27.40;48.60;;;;;;5109919;28;19916;-62
2022/08/22 02:43:17;;;;;;;;;;;27.40;48.60;;;;;;5091170;28;19915;-62
2022/08/22 02:45:45;;;;;;;;;;;27.40;48.50;;;;;;5109385;28;19962;-62
2022/08/22 02:48:10;;;;;;;;;;;27.40;48.60;;;;;;5092238;28;20006;-62
2022/08/22 02:50:43;;;;;;;;;;;27.40;48.60;;;;;;5110434;28;19912;-62
2022/08/22 02:53:20;;;;;;;;;;;27.40;48.50;;;;;;5090716;28;19959;-62
2022/08/22 02:55:48;;;;;;;;;;;27.40;48.40;;;;;;5091636;28;20002;-62
2022/08/22 02:58:17;;;;;;;;;;;27.40;48.70;;;;;;5091785;28;19947;-62
2022/08/22 03:00:47;;;;;;;;;;;27.40;48.60;;;;;;5089626;28;19916;-62
2022/08/22 03:03:20;;;;;;;;;;;27.40;48.50;;;;;;5091396;28;20325;-62
2022/08/22 03:05:50;;;;;;;;;;;27.40;48.30;;;;;;5091716;28;20288;-62
2022/08/22 03:08:19;;;;;;;;;;;27.50;48.40;;;;;;5096613;28;19918;-62
2022/08/22 03:10:54;;;;;;;;;;;27.50;48.60;;;;;;5094815;28;19911;-62
2022/08/22 03:13:32;;;;;;;;;;;27.40;48.60;;;;;;5114371;28;20394;-62
2022/08/22 03:16:18;;;;;;;;;;;27.40;48.50;;;;;;5089313;27;19911;-62
2022/08/22 03:18:46;;;;;;;;;;;27.40;48.60;;;;;;5095400;28;19918;-62
2022/08/22 03:21:12;;;;;;;;;;;27.40;48.70;;;;;;5094125;28;20371;-61
2022/08/22 03:23:40;;;;;;;;;;;27.30;48.70;;;;;;5113736;28;19912;-62
2022/08/22 03:26:08;;;;;;;;;;;27.30;48.90;;;;;;5114013;28;19955;-62
2022/08/22 03:28:40;;;;;;;;;;;27.30;48.70;;;;;;5094577;28;19916;-62
2022/08/22 03:31:12;;;;;;;;;;;27.30;48.80;;;;;;5093431;28;19945;-62
2022/08/22 03:33:37;;;;;;;;;;;27.30;48.70;;;;;;5078325;28;19915;-62
2022/08/22 03:36:03;;;;;;;;;;;27.30;48.70;;;;;;5113483;28;19912;-62
2022/08/22 03:38:31;;;;;;;;;;;27.30;48.80;;;;;;5109223;28;19922;-62
2022/08/22 03:41:03;;;;;;;;;;;27.30;48.70;;;;;;5093954;28;19959;-62
2022/08/22 03:43:47;;;;;;;;;;;27.30;48.80;;;;;;5114646;28;19908;-62
2022/08/22 03:46:15;;;;;;;;;;;27.30;48.80;;;;;;5094593;28;19965;-62
2022/08/22 03:48:44;;;;;;;;;;;27.30;48.90;;;;;;5112903;28;20395;-62
2022/08/22 03:51:12;;;;;;;;;;;27.30;48.90;;;;;;5073394;28;19922;-62
2022/08/22 03:53:43;;;;;;;;;;;27.30;48.80;;;;;;5070471;28;19923;-62
2022/08/22 03:56:09;;;;;;;;;;;27.30;49.00;;;;;;5112637;28;19968;-62
2022/08/22 03:58:42;;;;;;;;;;;27.30;48.70;;;;;;5112699;28;19995;-62
2022/08/22 04:01:20;;;;;;;;;;;27.30;48.90;;;;;;5093487;28;19986;-62
2022/08/22 04:03:58;;;;;;;;;;;27.30;49.00;;;;;;5113200;28;19938;-62
2022/08/22 04:06:34;;;;;;;;;;;27.30;48.80;;;;;;5113826;28;19920;-62
2022/08/22 04:09:19;;;;;;;;;;;27.20;49.00;;;;;;5092200;28;19916;-62
2022/08/22 04:12:02;;;;;;;;;;;27.20;49.10;;;;;;5094778;28;19915;-62
2022/08/22 04:14:46;;;;;;;;;;;27.20;49.00;;;;;;5094089;28;20277;-62
2022/08/22 04:17:26;;;;;;;;;;;27.20;49.10;;;;;;5108823;28;20002;-62
2022/08/22 04:19:59;;;;;;;;;;;27.30;49.10;;;;;;5092760;28;22237;-62
2022/08/22 04:22:37;;;;;;;;;;;27.20;49.10;;;;;;5112688;28;20006;-62
2022/08/22 04:25:06;;;;;;;;;;;27.30;49.10;;;;;;5110330;28;19920;-62
2022/08/22 04:27:37;;;;;;;;;;;27.20;49.20;;;;;;5095842;28;20529;-62
2022/08/22 04:30:09;;;;;;;;;;;27.20;49.10;;;;;;5093363;28;19915;-62
2022/08/22 04:33:05;;;;;;;;;;;27.20;49.20;;;;;;5094479;28;20410;-62
2022/08/22 04:35:38;;;;;;;;;;;27.10;49.40;;;;;;5087719;28;20006;-62
2022/08/22 04:38:03;;;;;;;;;;;27.10;49.40;;;;;;5089968;28;20414;-62
2022/08/22 04:40:33;;;;;;;;;;;27.10;49.50;;;;;;5112593;28;19998;-62
2022/08/22 04:43:19;;;;;;;;;;;27.10;49.30;;;;;;5095396;28;19911;-62
2022/08/22 04:45:50;;;;;;;;;;;27.20;49.40;;;;;;5093057;28;19926;-62
2022/08/22 04:48:18;;;;;;;;;;;27.20;49.50;;;;;;5094351;28;19919;-62
2022/08/22 04:50:47;;;;;;;;;;;27.20;49.40;;;;;;5111634;28;19916;-62
2022/08/22 04:53:13;;;;;;;;;;;27.10;49.30;;;;;;5088486;28;19954;-62
2022/08/22 04:55:43;;;;;;;;;;;27.20;49.50;;;;;;5111390;28;19959;-62
2022/08/22 04:58:23;;;;;;;;;;;27.10;49.40;;;;;;5077684;28;19916;-62
2022/08/22 05:01:08;;;;;;;;;;;27.10;49.60;;;;;;5075177;28;19925;-62
2022/08/22 05:03:44;;;;;;;;;;;27.10;49.60;;;;;;5112079;28;19912;-61
2022/08/22 05:06:10;;;;;;;;;;;27.10;49.90;;;;;;5092888;28;19915;-62
2022/08/22 05:08:36;;;;;;;;;;;27.10;49.90;;;;;;5081501;28;19916;-62
2022/08/22 05:11:02;;;;;;;;;;;27.00;49.90;;;;;;5093214;28;19941;-62
2022/08/22 05:13:29;;;;;;;;;;;27.10;49.90;;;;;;5093310;28;19923;-62
2022/08/22 05:15:56;;;;;;;;;;;27.10;49.90;;;;;;5091225;27;19916;-62
2022/08/22 05:18:25;;;;;;;;;;;27.10;49.90;;;;;;5091896;28;19960;-62
2022/08/22 05:20:51;;;;;;;;;;;27.10;49.80;;;;;;5093697;28;19918;-62
2022/08/22 05:23:36;;;;;;;;;;;27.10;49.90;;;;;;5093420;28;20291;-62
2022/08/22 05:26:02;;;;;;;;;;;27.10;49.90;;;;;;5103639;28;20440;-62
2022/08/22 05:28:34;;;;;;;;;;;27.10;49.90;;;;;;5092764;28;19916;-62
2022/08/22 05:31:04;;;;;;;;;;;27.10;49.90;;;;;;5110913;28;20341;-62
2022/08/22 05:33:31;;;;;;;;;;;27.00;49.90;;;;;;5108258;28;19916;-62
2022/08/22 05:36:06;;;;;;;;;;;27.00;50.00;;;;;;5091230;28;19923;-62
2022/08/22 05:38:33;;;;;;;;;;;27.00;50.30;;;;;;5089502;28;20110;-62
2022/08/22 05:41:00;;;;;;;;;;;27.00;50.30;;;;;;5106722;28;19955;-62
2022/08/22 05:43:26;;;;;;;;;;;27.00;50.10;;;;;;5092184;28;20025;-62
2022/08/22 05:45:51;;;;;;;;;;;27.00;50.20;;;;;;5091601;28;19915;-62
2022/08/22 05:48:17;;;;;;;;;;;27.00;50.20;;;;;;5092978;28;20006;-62
2022/08/22 05:50:44;;;;;;;;;;;27.00;50.30;;;;;;5111004;28;19952;-62
2022/08/22 05:53:18;;;;;;;;;;;26.90;50.30;;;;;;5109199;28;19911;-62
2022/08/22 05:55:57;;;;;;;;;;;27.00;50.50;;;;;;5091822;28;19943;-62
2022/08/22 05:58:33;;;;;;;;;;;27.00;50.40;;;;;;5100466;28;19954;-62
2022/08/22 06:01:17;;;;;;;;;;;27.00;50.40;;;;;;5089943;28;20425;-62
2022/08/22 06:03:51;;;;;;;;;;;27.00;50.50;;;;;;5091324;28;20335;-62
2022/08/22 06:06:17;;;;;;;;;;;27.00;50.40;;;;;;5090381;28;19916;-62
2022/08/22 06:08:44;;;;;;;;;;;27.00;50.40;;;;;;5090423;28;20331;-62
2022/08/22 06:11:16;;;;;;;;;;;26.90;50.60;;;;;;5092872;28;19977;-62
2022/08/22 06:13:44;;;;;;;;;;;26.90;50.70;;;;;;5091768;28;19954;-62
2022/08/22 06:16:13;;;;;;;;;;;26.90;50.80;;;;;;5107951;28;19916;-62
2022/08/22 06:18:39;;;;;;;;;;;26.90;50.80;;;;;;5085614;28;19963;-62
2022/08/22 06:21:27;;;;;;;;;;;26.90;50.90;;;;;;5092116;28;20272;-62
2022/08/22 06:23:57;;;;;;;;;;;26.90;51.00;;;;;;5100718;28;19919;-62
2022/08/22 06:26:34;;;;;;;;;;;26.90;51.00;;;;;;5090248;28;19923;-62
2022/08/22 06:29:00;;;;;;;;;;;26.90;51.10;;;;;;5085545;28;19922;-62
2022/08/22 06:31:27;;;;;;;;;;;26.90;51.00;;;;;;5089128;28;19916;-62
2022/08/22 06:33:54;;;;;;;;;;;27.00;50.90;;;;;;5104975;28;19912;-62
2022/08/22 06:36:29;;;;;;;;;;;27.00;51.00;;;;;;5109867;28;19923;-62
2022/08/22 06:38:58;;;;;;;;;;;26.90;51.00;;;;;;5110796;28;20375;-62
2022/08/22 06:41:24;;;;;;;;;;;26.90;51.30;;;;;;5110532;28;20247;-62
2022/08/22 06:43:51;;;;;;;;;;;26.90;51.20;;;;;;5088254;28;20387;-62
2022/08/22 06:46:17;;;;;;;;;;;26.80;51.50;;;;;;5086039;28;20375;-62
2022/08/22 06:48:42;;;;;;;;;;;26.80;51.50;;;;;;5093312;28;19957;-62
2022/08/22 06:51:09;;;;;;;;;;;26.80;51.70;;;;;;5092659;28;19908;-62
2022/08/22 06:53:37;;;;;;;;;;;26.80;51.70;;;;;;5091692;28;19930;-62
2022/08/22 06:56:04;;;;;;;;;;;26.90;51.60;;;;;;5111418;28;19998;-62
2022/08/22 06:58:38;;;;;;;;;;;26.80;51.70;;;;;;5111459;28;19911;-62
2022/08/22 07:01:05;;;;;;;;;;;26.90;51.70;;;;;;5111193;28;20018;-62
2022/08/22 07:03:38;;;;;;;;;;;26.90;51.70;;;;;;5076206;28;19908;-62
2022/08/22 07:06:04;;;;;;;;;;;26.90;51.80;;;;;;5090966;28;19969;-62
2022/08/22 07:08:30;;;;;;;;;;;26.90;51.90;;;;;;5081245;28;20383;-62
2022/08/22 07:11:07;;;;;;;;;;;26.90;51.90;;;;;;5088334;28;19955;-62
2022/08/22 07:13:34;;;;;;;;;;;26.90;52.30;;;;;;5086465;28;19959;-62
2022/08/22 07:16:01;;;;;;;;;;;26.80;52.30;;;;;;5088729;28;19968;-62
2022/08/22 07:18:27;;;;;;;;;;;26.80;52.50;;;;;;5087974;28;19911;-62
2022/08/22 07:21:03;;;;;;;;;;;26.80;52.50;;;;;;5103446;28;19973;-62
2022/08/22 07:23:32;;;;;;;;;;;26.80;52.50;;;;;;5106233;28;20279;-62
2022/08/22 07:26:04;;;;;;;;;;;26.90;52.60;;;;;;5107204;28;19965;-62
2022/08/22 07:28:36;;;;;;;;;;;26.80;52.50;;;;;;5107680;28;19928;-62
2022/08/22 07:31:05;;;;;;;;;;;26.90;52.70;;;;;;5078876;28;19920;-63
2022/08/22 07:33:38;;;;;;;;;;;26.90;52.60;;;;;;5088289;28;19912;-63
2022/08/22 07:36:14;;;;;;;;;;;26.90;52.70;;;;;;5106025;28;19912;-62
2022/08/22 07:38:42;;;;;;;;;;;26.90;52.80;;;;;;5087332;28;19923;-62
2022/08/22 07:41:10;;;;;;;;;;;26.80;53.20;;;;;;5109004;28;20319;-62
2022/08/22 07:43:40;;;;;;;;;;;26.70;53.30;;;;;;5089577;28;20260;-63
2022/08/22 07:46:32;;;;;;;;;;;26.70;53.40;;;;;;5108505;28;20010;-62
2022/08/22 07:48:59;;;;;;;;;;;26.60;53.70;;;;;;5102875;28;20002;-62
2022/08/22 07:51:29;;;;;;;;;;;26.60;53.90;;;;;;5090992;28;19916;-63
2022/08/22 07:53:58;;;;;;;;;;;26.70;53.50;;;;;;5092382;28;19919;-63
2022/08/22 07:56:28;;;;;;;;;;;26.70;53.70;;;;;;5102771;28;20356;-63
2022/08/22 07:59:05;;;;;;;;;;;26.70;53.70;;;;;;5109854;28;19912;-63
2022/08/22 08:01:30;;;;;;;;;;;26.80;53.50;;;;;;5107658;27;19916;-63
2022/08/22 08:03:59;;;;;;;;;;;26.80;53.30;;;;;;5091812;28;19927;-63
2022/08/22 08:06:25;;;;;;;;;;;26.80;53.50;;;;;;5092925;28;19927;-62
2022/08/22 08:08:50;;;;;;;;;;;26.90;53.60;;;;;;5094458;28;19907;-62
2022/08/22 08:11:16;;;;;;;;;;;26.90;53.70;;;;;;5092024;28;19958;-62
2022/08/22 08:13:42;;;;;;;;;;;26.80;53.90;;;;;;5076842;28;20010;-62
2022/08/22 08:16:09;;;;;;;;;;;26.60;54.20;;;;;;5094596;28;19931;-62
2022/08/22 08:18:35;;;;;;;;;;;26.60;54.40;;;;;;5110673;28;20010;-63
2022/08/22 08:21:05;;;;;;;;;;;26.70;54.20;;;;;;5076752;28;20003;-63
2022/08/22 08:23:34;;;;;;;;;;;26.70;54.30;;;;;;5087177;28;19911;-63
2022/08/22 08:25:59;;;;;;;;;;;26.70;54.50;;;;;;5105268;27;19992;-63
2022/08/22 08:28:36;;;;;;;;;;;26.70;54.40;;;;;;5113568;28;19981;-63
2022/08/22 08:31:06;;;;;;;;;;;26.70;54.50;;;;;;5095474;28;19916;-62
2022/08/22 08:33:31;;;;;;;;;;;26.70;54.30;;;;;;5092240;28;19923;-63
2022/08/22 08:36:11;;;;;;;;;;;26.70;54.30;;;;;;5092790;28;19916;-62
2022/08/22 08:38:40;;;;;;;;;;;26.80;54.40;;;;;;5113191;28;19969;-63
2022/08/22 08:41:25;;;;;;;;;;;26.70;54.50;;;;;;5093279;28;20381;-63
2022/08/22 08:44:02;;;;;;;;;;;26.70;54.60;;;;;;5110018;28;19915;-64
2022/08/22 08:46:30;;;;;;;;;;;26.70;54.50;;;;;;5112181;27;19916;-61
2022/08/22 08:49:25;;;;;;;;;;;26.70;54.30;;;;;;5110619;28;19912;-62
2022/08/22 08:52:17;;;;;;;;;;;26.80;54.20;;;;;;5005105;28;19914;-64
2022/08/22 08:54:50;;;;;;;;;;;26.80;54.00;;;;;;5067323;28;20332;-64
2022/08/22 08:57:23;;;;;;;;;;;26.80;53.90;;;;;;5107536;27;20323;-63
2022/08/22 09:00:01;;;;;;;;;;;26.90;53.90;;;;;;5092408;28;19961;-64
2022/08/22 09:02:45;;;;;;;;;;;26.90;53.40;;;;;;5100924;28;20002;-64
2022/08/22 09:05:11;;;;;;;;;;;27.00;53.40;;;;;;5090590;28;19918;-62
2022/08/22 09:07:55;;;;;;;;;;;27.00;53.20;;;;;;5111268;28;20502;-63
2022/08/22 09:10:24;;;;;;;;;;;27.00;53.00;;;;;;5110771;28;19984;-63
2022/08/22 09:12:49;;;;;;;;;;;27.00;52.90;;;;;;5112330;28;19969;-63
2022/08/22 09:15:27;;;;;;;;;;;27.00;53.00;;;;;;5106546;28;19916;-63
2022/08/22 09:18:03;;;;;;;;;;;27.00;53.10;;;;;;5108982;28;19916;-64
2022/08/22 09:20:38;;;;;;;;;;;27.00;52.80;;;;;;5091841;28;20264;-63
2022/08/22 09:23:21;;;;;;;;;;;26.90;52.70;;;;;;5107171;28;19995;-62
2022/08/22 09:26:00;;;;;;;;;;;27.00;52.80;;;;;;5109646;28;19919;-62
2022/08/22 09:28:25;;;;;;;;;;;27.00;52.50;;;;;;5109140;28;19927;-62
2022/08/22 09:30:50;;;;;;;;;;;27.10;52.20;;;;;;5107630;28;19919;-62
2022/08/22 09:33:17;;;;;;;;;;;27.00;52.00;;;;;;5110402;28;19945;-62
2022/08/22 09:35:50;;;;;;;;;;;27.00;52.10;;;;;;5089768;28;19920;-63
2022/08/22 09:38:17;;;;;;;;;;;27.00;52.00;;;;;;5090175;28;20268;-64
2022/08/22 09:40:44;;;;;;;;;;;27.00;51.90;;;;;;5107203;28;20356;-63
2022/08/22 09:43:11;;;;;;;;;;;27.00;51.70;;;;;;5091318;28;19916;-63
2022/08/22 09:45:47;;;;;;;;;;;27.00;51.20;;;;;;5090960;28;19961;-64
2022/08/22 09:48:20;;;;;;;;;;;27.00;50.60;;;;;;5092459;28;20360;-63
2022/08/22 09:51:03;;;;;;;;;;;27.00;50.50;;;;;;5092466;28;20002;-65
2022/08/22 09:53:38;;;;;;;;;;;27.10;50.80;;;;;;5088525;28;20012;-63
2022/08/22 09:56:09;;;;;;;;;;;27.10;50.60;;;;;;5072361;28;19957;-63
2022/08/22 09:58:47;;;;;;;;;;;27.10;50.30;;;;;;5074559;28;19936;-63
2022/08/22 10:01:15;;;;;;;;;;;27.10;50.20;;;;;;5108833;28;20404;-64
2022/08/22 10:03:43;;;;;;;;;;;27.10;49.90;;;;;;5110652;28;20366;-63
2022/08/22 10:06:23;;;;;;;;;;;27.10;50.20;;;;;;5110023;28;19922;-62
2022/08/22 10:08:55;;;;;;;;;;;27.10;50.30;;;;;;5102628;28;20325;-63
2022/08/22 10:11:35;;;;;;;;;;;27.10;50.10;;;;;;5089738;28;20367;-63
2022/08/22 10:14:01;;;;;;;;;;;27.10;49.90;;;;;;5088103;28;19919;-63
2022/08/22 10:16:53;;;;;;;;;;;27.10;50.30;;;;;;5084954;28;19918;-63
2022/08/22 10:19:21;;;;;;;;;;;27.10;50.00;;;;;;5108216;28;20410;-64
2022/08/22 10:22:06;;;;;;;;;;;27.20;50.00;;;;;;5091270;28;19951;-63
2022/08/22 10:24:34;;;;;;;;;;;27.20;49.90;;;;;;5105859;28;19920;-64
2022/08/22 10:27:02;;;;;;;;;;;27.20;49.30;;;;;;5085968;28;19922;-63
2022/08/22 10:29:44;;;;;;;;;;;27.10;49.40;;;;;;5104520;28;19922;-63
2022/08/22 10:32:24;;;;;;;;;;;27.00;49.20;;;;;;5087643;28;19922;-63
2022/08/22 10:34:51;;;;;;;;;;;27.00;49.60;;;;;;5108104;28;19922;-63
2022/08/22 10:37:20;;;;;;;;;;;27.00;49.70;;;;;;5092260;28;20436;-64
2022/08/22 10:39:52;;;;;;;;;;;27.10;49.30;;;;;;5087433;28;19911;-63
2022/08/22 10:42:47;;;;;;;;;;;27.10;49.00;;;;;;5097091;28;19919;-63
2022/08/22 10:45:18;;;;;;;;;;;27.20;48.50;;;;;;5083400;28;19916;-61
2022/08/22 10:47:49;;;;;;;;;;;27.20;48.60;;;;;;5110024;28;20443;-61
2022/08/22 10:50:17;;;;;;;;;;;27.20;48.80;;;;;;5081018;28;20260;-63
2022/08/22 10:52:50;;;;;;;;;;;27.20;48.60;;;;;;5072135;28;19926;-63
2022/08/22 10:55:19;;;;;;;;;;;27.20;48.90;;;;;;5105883;28;20393;-63
2022/08/22 10:58:08;;;;;;;;;;;27.30;48.40;;;;;;5089170;28;19931;-63
2022/08/22 11:00:41;;;;;;;;;;;27.30;48.20;;;;;;5097144;28;19915;-63
2022/08/22 11:03:12;;;;;;;;;;;27.40;48.00;;;;;;5093421;28;20268;-63
2022/08/22 11:05:41;;;;;;;;;;;27.40;48.10;;;;;;5089242;28;19967;-63
2022/08/22 11:08:29;;;;;;;;;;;27.40;48.10;;;;;;5104638;28;19964;-63
2022/08/22 11:11:13;;;;;;;;;;;27.50;47.60;;;;;;5090934;28;20021;-64
2022/08/22 11:13:40;;;;;;;;;;;27.50;47.90;;;;;;5103517;28;19931;-63
2022/08/22 11:16:10;;;;;;;;;;;27.50;47.80;;;;;;5087619;28;19912;-63
2022/08/22 11:18:44;;;;;;;;;;;27.50;47.60;;;;;;5088353;28;19920;-63
2022/08/22 11:21:21;;;;;;;;;;;27.60;47.40;;;;;;5105921;28;19922;-63
2022/08/22 11:23:53;;;;;;;;;;;27.60;47.40;;;;;;5110368;28;19907;-63
2022/08/22 11:26:37;;;;;;;;;;;27.70;47.40;;;;;;5088080;28;20474;-63
2022/08/22 11:29:32;;;;;;;;;;;27.70;47.10;;;;;;5087786;28;20728;-63
2022/08/22 11:31:58;;;;;;;;;;;27.70;47.30;;;;;;5087228;28;20006;-63
2022/08/22 11:34:27;;;;;;;;;;;27.70;47.10;;;;;;5111989;28;20033;-63
2022/08/22 11:36:53;;;;;;;;;;;27.70;46.80;;;;;;5088013;28;19927;-63
2022/08/22 11:39:18;;;;;;;;;;;27.70;46.90;;;;;;5081956;28;19920;-63
2022/08/22 11:41:47;;;;;;;;;;;27.70;46.90;;;;;;5108140;27;20409;-63
2022/08/22 11:44:42;;;;;;;;;;;27.70;47.30;;;;;;5093625;28;19945;-63
2022/08/22 11:47:09;;;;;;;;;;;27.70;47.10;;;;;;5084853;28;19916;-63
2022/08/22 11:49:35;;;;;;;;;;;27.70;47.00;;;;;;5114253;28;19912;-63
2022/08/22 11:52:14;;;;;;;;;;;27.60;46.00;;;;;;5114067;28;20336;-63
2022/08/22 11:54:40;;;;;;;;;;;27.70;45.80;;;;;;5094556;28;19933;-64
2022/08/22 11:57:10;;;;;;;;;;;27.70;45.90;;;;;;5107706;27;20014;-63
2022/08/22 11:59:41;;;;;;;;;;;27.70;45.90;;;;;;5091676;28;19951;-63
2022/08/22 12:02:13;;;;;;;;;;;27.70;46.10;;;;;;5106001;28;20006;-63
2022/08/22 12:04:39;;;;;;;;;;;27.70;46.10;;;;;;5095580;28;19911;-63
2022/08/22 12:07:15;;;;;;;;;;;27.70;45.70;;;;;;5095516;28;19930;-63
2022/08/22 12:09:41;;;;;;;;;;;27.70;45.70;;;;;;5094059;28;19912;-63
2022/08/22 12:12:20;;;;;;;;;;;27.70;45.80;;;;;;5106514;28;19912;-64
2022/08/22 12:14:53;;;;;;;;;;;27.70;46.00;;;;;;5093039;28;19924;-63
2022/08/22 12:17:29;;;;;;;;;;;27.80;46.30;;;;;;5091099;28;20378;-63
2022/08/22 12:19:58;;;;;;;;;;;27.80;46.40;;;;;;5070408;28;19916;-63
2022/08/22 12:22:42;;;;;;;;;;;27.90;46.60;;;;;;5109498;28;19916;-64
2022/08/22 12:25:10;;;;;;;;;;;27.90;45.90;;;;;;5093277;28;19912;-64
2022/08/22 12:27:44;;;;;;;;;;;28.00;46.20;;;;;;5075826;28;20317;-63
2022/08/22 12:30:28;;;;;;;;;;;28.00;46.40;;;;;;5092391;28;19920;-63
2022/08/22 12:33:03;;;;;;;;;;;27.90;46.40;;;;;;5108488;28;19918;-64
2022/08/22 12:35:28;;;;;;;;;;;27.90;46.50;;;;;;5108830;28;19912;-64
2022/08/22 12:37:58;;;;;;;;;;;28.00;46.50;;;;;;5100433;28;19916;-64
2022/08/22 12:40:26;;;;;;;;;;;28.00;45.00;;;;;;5082138;28;19920;-64
2022/08/22 12:42:55;;;;;;;;;;;28.00;44.70;;;;;;5106049;28;20506;-64
2022/08/22 12:45:46;;;;;;;;;;;27.90;44.60;;;;;;5092778;28;20465;-64
2022/08/22 12:48:30;;;;;;;;;;;27.90;44.40;;;;;;5064076;27;19919;-62
2022/08/22 12:51:16;;;;;;;;;;;27.90;44.70;;;;;;5093705;28;19957;-64
2022/08/22 12:54:00;;;;;;;;;;;27.90;44.60;;;;;;5045612;28;19920;-64
2022/08/22 12:56:44;;;;;;;;;;;28.00;45.10;;;;;;5107442;28;19915;-61
2022/08/22 12:59:29;;;;;;;;;;;28.00;45.00;;;;;;5104719;28;19918;-62
2022/08/22 13:01:56;;;;;;;;;;;28.00;45.30;;;;;;5103647;28;19915;-64
2022/08/22 13:04:26;;;;;;;;;;;28.00;45.50;;;;;;5086466;28;19912;-63
2022/08/22 13:06:53;;;;;;;;;;;28.00;45.60;;;;;;5093583;28;19919;-63
2022/08/22 13:09:24;;;;;;;;;;;27.90;45.50;;;;;;5107024;28;19915;-64
2022/08/22 13:11:51;;;;;;;;;;;28.00;45.80;;;;;;5102291;28;20014;-62
2022/08/22 13:14:23;;;;;;;;;;;28.00;45.90;;;;;;5090487;28;19946;-62
2022/08/22 13:16:53;;;;;;;;;;;27.90;45.70;;;;;;5087273;28;19934;-62
2022/08/22 13:19:21;;;;;;;;;;;27.90;46.00;;;;;;5093436;28;20018;-64
2022/08/22 13:21:56;;;;;;;;;;;27.90;45.90;;;;;;5087990;28;19912;-64
2022/08/22 13:24:25;;;;;;;;;;;27.90;45.80;;;;;;5101943;28;19919;-64
2022/08/22 13:26:52;;;;;;;;;;;28.00;45.90;;;;;;5088617;28;20018;-62
2022/08/22 13:29:20;;;;;;;;;;;28.00;45.60;;;;;;5091284;28;19965;-64
2022/08/22 13:31:49;;;;;;;;;;;28.10;45.50;;;;;;5092598;28;20430;-64
2022/08/22 13:34:33;;;;;;;;;;;28.10;45.50;;;;;;5088476;28;20311;-63
2022/08/22 13:36:59;;;;;;;;;;;28.00;45.90;;;;;;5110842;28;19920;-64
2022/08/22 13:39:25;;;;;;;;;;;28.00;45.40;;;;;;5092352;28;19911;-63
2022/08/22 13:41:55;;;;;;;;;;;28.00;45.40;;;;;;5090586;28;19957;-62
2022/08/22 13:44:21;;;;;;;;;;;28.10;45.40;;;;;;5093023;28;19912;-64
2022/08/22 13:46:47;;;;;;;;;;;28.10;45.10;;;;;;5091832;28;19916;-64
2022/08/22 13:49:16;;;;;;;;;;;28.10;45.10;;;;;;5090349;28;19934;-64
2022/08/22 13:51:47;;;;;;;;;;;28.10;45.20;;;;;;5092490;28;19911;-63
2022/08/22 13:54:21;;;;;;;;;;;28.10;45.10;;;;;;5086586;28;19938;-63
2022/08/22 13:56:47;;;;;;;;;;;28.10;44.20;;;;;;5091238;28;19916;-63
2022/08/22 13:59:14;;;;;;;;;;;28.00;44.40;;;;;;5110706;28;20000;-62
2022/08/22 14:01:49;;;;;;;;;;;28.00;44.30;;;;;;5092814;28;19922;-62
2022/08/22 14:04:20;;;;;;;;;;;28.00;43.90;;;;;;5087722;28;19942;-64
2022/08/22 14:07:10;;;;;;;;;;;28.10;44.00;;;;;;5091542;28;19921;-63
2022/08/22 14:09:47;;;;;;;;;;;28.10;43.70;;;;;;5095529;27;20451;-62
2022/08/22 14:12:14;;;;;;;;;;;28.20;43.50;;;;;;5084006;28;19916;-63
2022/08/22 14:14:41;;;;;;;;;;;28.30;43.50;;;;;;5090314;28;20017;-62
2022/08/22 14:17:07;;;;;;;;;;;28.30;43.90;;;;;;5091304;28;19916;-63
2022/08/22 14:19:33;;;;;;;;;;;28.30;43.50;;;;;;5092804;28;20422;-63
2022/08/22 14:22:03;;;;;;;;;;;28.30;43.50;;;;;;5090011;28;19934;-64
2022/08/22 14:24:38;;;;;;;;;;;28.30;43.00;;;;;;5108518;28;19912;-64
2022/08/22 14:27:07;;;;;;;;;;;28.30;42.70;;;;;;5111445;28;20406;-64
2022/08/22 14:29:42;;;;;;;;;;;28.30;43.00;;;;;;5090303;28;19912;-63
2022/08/22 14:32:12;;;;;;;;;;;28.40;43.80;;;;;;5108069;28;19926;-64
2022/08/22 14:34:38;;;;;;;;;;;28.40;43.70;;;;;;5099607;28;20510;-64
2022/08/22 14:37:06;;;;;;;;;;;28.40;43.70;;;;;;5110544;28;19923;-64
2022/08/22 14:39:43;;;;;;;;;;;28.30;43.90;;;;;;5089298;28;19973;-64
2022/08/22 14:42:19;;;;;;;;;;;28.30;44.20;;;;;;5109515;28;20006;-64
2022/08/22 14:44:58;;;;;;;;;;;28.30;44.20;;;;;;5111440;28;20014;-64
2022/08/22 14:47:25;;;;;;;;;;;28.30;44.40;;;;;;5109317;28;19922;-64